createdAt,value
2023-02-27T00:00:32.855Z,3.70
2023-02-27T00:01:36.362Z,3.70
2023-02-27T00:02:39.086Z,3.70
2023-02-27T00:03:42.342Z,3.70
2023-02-27T00:04:44.770Z,3.70
2023-02-27T00:05:48.130Z,3.70
2023-02-27T00:06:50.321Z,3.70
2023-02-27T00:07:54.002Z,3.70
2023-02-27T00:08:56.548Z,3.70
2023-02-27T00:10:01.325Z,3.60
2023-02-27T00:11:03.701Z,3.60
2023-02-27T00:12:08.099Z,3.60
2023-02-27T00:13:10.577Z,3.60
2023-02-27T00:14:13.811Z,3.60
2023-02-27T00:15:19.222Z,3.60
2023-02-27T00:16:22.618Z,3.60
2023-02-27T00:17:28.089Z,3.60
2023-02-27T00:18:31.678Z,3.60
2023-02-27T00:19:34.099Z,3.60
2023-02-27T00:20:38.312Z,3.50
2023-02-27T00:21:41.419Z,3.60
2023-02-27T00:22:45.665Z,3.60
2023-02-27T00:23:48.118Z,3.60
2023-02-27T00:24:51.371Z,3.60
2023-02-27T00:25:56.830Z,3.60
2023-02-27T00:26:59.159Z,3.60
2023-02-27T00:28:02.740Z,3.60
2023-02-27T00:29:06.588Z,3.60
2023-02-27T00:30:12.094Z,3.60
2023-02-27T00:31:15.555Z,3.60
2023-02-27T00:32:18.173Z,3.60
2023-02-27T00:33:21.522Z,3.60
2023-02-27T00:34:23.898Z,3.60
2023-02-27T00:35:27.246Z,3.60
2023-02-27T00:36:29.593Z,3.60
2023-02-27T00:37:33.008Z,3.60
2023-02-27T00:38:35.781Z,3.60
2023-02-27T00:39:39.094Z,3.60
2023-02-27T00:40:41.394Z,3.60
2023-02-27T00:41:45.949Z,3.60
2023-02-27T00:42:49.396Z,3.60
2023-02-27T00:43:53.018Z,3.60
2023-02-27T00:44:55.281Z,3.60
2023-02-27T00:45:58.506Z,3.60
2023-02-27T00:47:00.850Z,3.60
2023-02-27T00:48:04.099Z,3.60
2023-02-27T00:49:06.343Z,3.60
2023-02-27T00:50:11.112Z,3.60
2023-02-27T00:51:13.429Z,3.60
2023-02-27T00:52:16.728Z,3.60
2023-02-27T00:53:18.947Z,3.60
2023-02-27T00:54:22.233Z,3.60
2023-02-27T00:55:26.946Z,3.60
2023-02-27T00:56:30.644Z,3.60
2023-02-27T00:57:34.402Z,3.60
2023-02-27T00:58:37.608Z,3.60
2023-02-27T00:59:39.852Z,3.60
2023-02-27T01:00:43.174Z,3.50
2023-02-27T01:01:45.533Z,3.50
2023-02-27T01:02:48.737Z,3.50
2023-02-27T01:03:51.055Z,3.50
2023-02-27T01:04:54.290Z,3.50
2023-02-27T01:05:57.673Z,3.50
2023-02-27T01:07:00.852Z,3.50
2023-02-27T01:08:03.530Z,3.50
2023-02-27T01:09:07.147Z,3.50
2023-02-27T01:10:11.701Z,3.50
2023-02-27T01:11:15.005Z,3.50
2023-02-27T01:12:17.216Z,3.50
2023-02-27T01:13:21.835Z,3.50
2023-02-27T01:14:24.222Z,3.50
2023-02-27T01:15:27.433Z,3.50
2023-02-27T01:16:30.168Z,3.50
2023-02-27T01:17:33.750Z,3.50
2023-02-27T01:18:36.011Z,3.50
2023-02-27T01:19:39.285Z,3.40
2023-02-27T01:20:41.466Z,3.40
2023-02-27T01:21:44.703Z,3.40
2023-02-27T01:22:46.919Z,3.40
2023-02-27T01:23:50.843Z,3.40
2023-02-27T01:24:53.093Z,3.40
2023-02-27T01:25:56.375Z,3.40
2023-02-27T01:26:58.941Z,3.30
2023-02-27T01:28:02.230Z,3.30
2023-02-27T01:29:06.569Z,3.40
2023-02-27T01:30:12.662Z,3.30
2023-02-27T01:31:18.124Z,3.30
2023-02-27T01:32:21.664Z,3.30
2023-02-27T01:33:23.987Z,3.30
2023-02-27T01:34:27.555Z,3.30
2023-02-27T01:35:29.710Z,3.30
2023-02-27T01:36:32.943Z,3.30
2023-02-27T01:37:35.274Z,3.30
2023-02-27T01:38:38.891Z,3.20
2023-02-27T01:39:41.316Z,3.20
2023-02-27T01:40:45.123Z,3.20
2023-02-27T01:41:47.668Z,3.20
2023-02-27T01:42:50.849Z,3.10
2023-02-27T01:43:58.883Z,3.10
2023-02-27T01:45:27.959Z,3.10
2023-02-27T01:46:32.795Z,3.10
2023-02-27T01:47:36.251Z,3.00
2023-02-27T01:48:41.187Z,3.10
2023-02-27T01:49:43.431Z,3.10
2023-02-27T01:50:52.803Z,3.10
2023-02-27T01:52:05.730Z,3.10
2023-02-27T01:53:08.629Z,3.10
2023-02-27T01:54:16.469Z,3.10
2023-02-27T01:55:20.739Z,3.20
2023-02-27T01:56:26.665Z,3.20
2023-02-27T01:57:29.346Z,3.20
2023-02-27T01:58:33.439Z,3.20
2023-02-27T01:59:39.023Z,3.10
2023-02-27T02:00:44.510Z,3.10
2023-02-27T02:01:47.302Z,3.10
2023-02-27T02:02:59.113Z,3.20
2023-02-27T02:04:10.267Z,3.10
2023-02-27T02:05:14.931Z,3.20
2023-02-27T02:06:18.371Z,3.20
2023-02-27T02:07:21.989Z,3.10
2023-02-27T02:08:29.410Z,3.10
2023-02-27T02:09:35.568Z,3.10
2023-02-27T02:10:42.063Z,3.10
2023-02-27T02:11:45.343Z,3.10
2023-02-27T02:12:49.330Z,3.00
2023-02-27T02:13:56.854Z,3.00
2023-02-27T02:15:00.051Z,3.00
2023-02-27T02:16:21.685Z,3.00
2023-02-27T02:17:40.244Z,3.00
2023-02-27T02:18:51.100Z,2.80
2023-02-27T02:20:33.669Z,2.80
2023-02-27T02:22:20.015Z,2.80
2023-02-27T02:24:03.527Z,2.70
2023-02-27T02:26:01.867Z,2.70
2023-02-27T02:27:21.526Z,2.70
2023-02-27T02:28:51.612Z,2.70
2023-02-27T02:30:52.269Z,2.70
2023-02-27T02:32:46.293Z,2.70
2023-02-27T02:34:25.728Z,2.80
2023-02-27T02:36:18.264Z,2.70
2023-02-27T02:37:55.375Z,2.80
2023-02-27T02:39:28.293Z,2.70
2023-02-27T02:40:39.411Z,2.70
2023-02-27T02:41:57.240Z,2.70
2023-02-27T02:43:09.528Z,2.70
2023-02-27T02:44:24.383Z,2.70
2023-02-27T02:45:34.744Z,2.70
2023-02-27T02:46:48.142Z,2.60
2023-02-27T02:48:05.713Z,2.60
2023-02-27T02:49:19.188Z,2.70
2023-02-27T02:50:31.158Z,2.70
2023-02-27T02:51:39.606Z,2.70
2023-02-27T02:52:59.097Z,2.70
2023-02-27T02:54:10.720Z,2.70
2023-02-27T02:55:22.545Z,2.70
2023-02-27T02:56:35.072Z,2.70
2023-02-27T02:57:44.680Z,2.70
2023-02-27T02:58:58.170Z,2.60
2023-02-27T03:00:07.909Z,2.70
2023-02-27T03:01:16.322Z,2.70
2023-02-27T03:02:26.882Z,2.70
2023-02-27T03:03:35.430Z,2.70
2023-02-27T03:04:45.469Z,2.70
2023-02-27T03:05:54.641Z,2.70
2023-02-27T03:07:03.972Z,2.60
2023-02-27T03:08:12.584Z,2.60
2023-02-27T03:09:25.185Z,2.70
2023-02-27T03:10:35.129Z,2.70
2023-02-27T03:11:45.037Z,2.70
2023-02-27T03:12:55.017Z,2.70
2023-02-27T03:14:06.867Z,2.70
2023-02-27T03:15:17.019Z,2.60
2023-02-27T03:16:27.764Z,2.60
2023-02-27T03:17:42.038Z,2.60
2023-02-27T03:18:53.172Z,2.60
2023-02-27T03:20:02.098Z,2.70
2023-02-27T03:21:11.341Z,2.70
2023-02-27T03:22:19.536Z,2.70
2023-02-27T03:23:27.623Z,2.70
2023-02-27T03:24:38.001Z,2.70
2023-02-27T03:25:46.270Z,2.70
2023-02-27T03:26:57.228Z,2.70
2023-02-27T03:28:04.167Z,2.70
2023-02-27T03:29:11.514Z,2.70
2023-02-27T03:30:21.875Z,2.70
2023-02-27T03:31:34.935Z,2.70
2023-02-27T03:32:45.911Z,2.70
2023-02-27T03:33:54.038Z,2.70
2023-02-27T03:34:56.759Z,2.60
2023-02-27T03:36:10.536Z,2.60
2023-02-27T03:37:25.242Z,2.60
2023-02-27T03:38:39.163Z,2.60
2023-02-27T03:39:48.019Z,2.60
2023-02-27T03:40:59.319Z,2.60
2023-02-27T03:42:15.079Z,2.60
2023-02-27T03:43:30.416Z,2.50
2023-02-27T03:44:42.530Z,2.50
2023-02-27T03:45:59.759Z,2.50
2023-02-27T03:47:02.498Z,2.40
2023-02-27T03:48:09.118Z,2.40
2023-02-27T03:49:11.402Z,2.40
2023-02-27T03:50:14.876Z,2.40
2023-02-27T03:51:21.601Z,2.40
2023-02-27T03:52:29.688Z,2.40
2023-02-27T03:53:38.371Z,2.40
2023-02-27T03:54:51.846Z,2.40
2023-02-27T03:55:56.437Z,2.40
2023-02-27T03:57:03.718Z,2.40
2023-02-27T03:58:06.554Z,2.40
2023-02-27T03:59:10.813Z,2.30
2023-02-27T04:00:18.678Z,2.40
2023-02-27T04:01:21.873Z,2.40
2023-02-27T04:02:26.884Z,2.40
2023-02-27T04:03:30.576Z,2.40
2023-02-27T04:04:35.724Z,2.40
2023-02-27T04:05:38.259Z,2.50
2023-02-27T04:07:14.516Z,2.50
2023-02-27T04:08:37.995Z,2.50
2023-02-27T04:10:05.405Z,2.40
2023-02-27T04:11:28.744Z,2.40
2023-02-27T04:12:51.372Z,2.40
2023-02-27T04:14:14.641Z,2.40
2023-02-27T04:15:29.534Z,2.30
2023-02-27T04:17:03.579Z,2.30
2023-02-27T04:18:23.996Z,2.20
2023-02-27T04:19:44.575Z,2.30
2023-02-27T04:20:55.797Z,2.20
2023-02-27T04:22:12.866Z,2.20
2023-02-27T04:23:24.993Z,2.30
2023-02-27T04:24:38.111Z,2.30
2023-02-27T04:25:55.565Z,2.30
2023-02-27T04:27:11.702Z,2.30
2023-02-27T04:28:19.561Z,2.30
2023-02-27T04:29:32.987Z,2.30
2023-02-27T04:30:46.637Z,2.30
2023-02-27T04:32:00.351Z,2.30
2023-02-27T04:33:11.060Z,2.20
2023-02-27T04:34:22.811Z,2.20
2023-02-27T04:35:34.133Z,2.20
2023-02-27T04:36:45.810Z,2.20
2023-02-27T04:37:56.985Z,2.20
2023-02-27T04:39:08.352Z,2.20
2023-02-27T04:40:16.375Z,2.20
2023-02-27T04:41:26.658Z,2.20
2023-02-27T04:42:34.974Z,2.20
2023-02-27T04:43:43.027Z,2.20
2023-02-27T04:44:48.996Z,2.20
2023-02-27T04:45:55.839Z,2.20
2023-02-27T04:47:02.956Z,2.10
2023-02-27T04:48:13.038Z,2.10
2023-02-27T04:49:22.892Z,2.10
2023-02-27T04:50:30.931Z,2.10
2023-02-27T04:51:41.049Z,2.10
2023-02-27T04:52:50.227Z,2.10
2023-02-27T04:53:59.879Z,2.10
2023-02-27T04:55:10.027Z,2.10
2023-02-27T04:56:20.303Z,2.10
2023-02-27T04:57:29.733Z,2.20
2023-02-27T04:58:39.000Z,2.20
2023-02-27T04:59:47.153Z,2.20
2023-02-27T05:00:58.920Z,2.20
2023-02-27T05:02:06.526Z,2.20
2023-02-27T05:03:16.015Z,2.20
2023-02-27T05:04:22.889Z,2.20
2023-02-27T05:05:31.950Z,2.10
2023-02-27T05:06:40.096Z,2.20
2023-02-27T05:07:49.276Z,2.20
2023-02-27T05:09:01.374Z,2.20
2023-02-27T05:10:09.334Z,2.20
2023-02-27T05:11:20.478Z,2.30
2023-02-27T05:12:31.008Z,2.30
2023-02-27T05:13:39.727Z,2.30
2023-02-27T05:14:50.405Z,2.30
2023-02-27T05:15:59.425Z,2.30
2023-02-27T05:17:09.019Z,2.30
2023-02-27T05:18:15.494Z,2.30
2023-02-27T05:19:20.643Z,2.20
2023-02-27T05:20:29.777Z,2.20
2023-02-27T05:21:38.583Z,2.20
2023-02-27T05:22:48.732Z,2.20
2023-02-27T05:24:04.366Z,2.20
2023-02-27T05:25:15.152Z,2.10
2023-02-27T05:26:24.704Z,2.10
2023-02-27T05:27:36.771Z,2.10
2023-02-27T05:28:51.950Z,2.10
2023-02-27T05:30:00.640Z,2.10
2023-02-27T05:31:09.371Z,2.10
2023-02-27T05:32:22.504Z,2.10
2023-02-27T05:33:32.931Z,2.10
2023-02-27T05:34:43.024Z,2.10
2023-02-27T05:35:53.160Z,2.20
2023-02-27T05:37:05.258Z,2.20
2023-02-27T05:38:15.800Z,2.20
2023-02-27T05:39:23.179Z,2.20
2023-02-27T05:40:33.523Z,2.20
2023-02-27T05:41:42.425Z,2.20
2023-02-27T05:42:53.770Z,2.10
2023-02-27T05:44:05.217Z,2.10
2023-02-27T05:45:14.375Z,2.10
2023-02-27T05:46:24.161Z,2.20
2023-02-27T05:47:32.325Z,2.20
2023-02-27T05:48:39.916Z,2.20
2023-02-27T05:49:48.128Z,2.20
2023-02-27T05:50:54.996Z,2.20
2023-02-27T05:52:02.800Z,2.20
2023-02-27T05:53:10.646Z,2.20
2023-02-27T05:54:22.787Z,2.20
2023-02-27T05:55:32.865Z,2.30
2023-02-27T05:56:39.614Z,2.30
2023-02-27T05:57:48.873Z,2.30
2023-02-27T05:59:01.772Z,2.30
2023-02-27T06:00:12.294Z,2.30
2023-02-27T06:01:15.540Z,2.30
2023-02-27T06:02:18.046Z,2.30
2023-02-27T06:03:22.482Z,2.30
2023-02-27T06:04:24.890Z,2.30
2023-02-27T06:05:29.946Z,2.30
2023-02-27T06:06:32.708Z,2.30
2023-02-27T06:07:37.033Z,2.30
2023-02-27T06:08:39.362Z,2.20
2023-02-27T06:09:44.789Z,2.20
2023-02-27T06:10:49.789Z,2.20
2023-02-27T06:11:52.184Z,2.20
2023-02-27T06:12:55.476Z,2.20
2023-02-27T06:13:59.163Z,2.20
2023-02-27T06:15:02.521Z,2.20
2023-02-27T06:16:05.550Z,2.20
2023-02-27T06:17:08.808Z,2.20
2023-02-27T06:18:13.428Z,2.20
2023-02-27T06:19:15.726Z,2.20
2023-02-27T06:20:19.653Z,2.20
2023-02-27T06:21:23.049Z,2.20
2023-02-27T06:22:25.262Z,2.20
2023-02-27T06:23:28.900Z,2.30
2023-02-27T06:24:31.227Z,2.30
2023-02-27T06:25:35.051Z,2.20
2023-02-27T06:26:37.509Z,2.20
2023-02-27T06:27:41.354Z,2.20
2023-02-27T06:28:43.840Z,2.20
2023-02-27T06:29:48.608Z,2.20
2023-02-27T06:30:54.830Z,2.20
2023-02-27T06:31:58.027Z,2.20
2023-02-27T06:33:01.043Z,2.10
2023-02-27T06:34:04.219Z,2.10
2023-02-27T06:35:07.350Z,2.10
2023-02-27T06:36:10.648Z,2.20
2023-02-27T06:37:12.858Z,2.20
2023-02-27T06:38:16.208Z,2.20
2023-02-27T06:39:19.432Z,2.20
2023-02-27T06:40:23.026Z,2.20
2023-02-27T06:41:25.390Z,2.20
2023-02-27T06:42:28.696Z,2.20
2023-02-27T06:43:34.620Z,2.30
2023-02-27T06:44:37.885Z,2.30
2023-02-27T06:45:51.466Z,2.30
2023-02-27T06:46:53.724Z,2.30
2023-02-27T06:47:56.921Z,2.30
2023-02-27T06:48:59.304Z,2.30
2023-02-27T06:50:03.670Z,2.30
2023-02-27T06:51:07.199Z,2.30
2023-02-27T06:52:10.398Z,2.30
2023-02-27T06:53:12.701Z,2.30
2023-02-27T06:54:15.894Z,2.30
2023-02-27T06:55:20.814Z,2.40
2023-02-27T06:56:33.000Z,2.40
2023-02-27T06:57:35.390Z,2.40
2023-02-27T06:58:38.727Z,2.40
2023-02-27T06:59:41.928Z,2.40
2023-02-27T07:00:45.402Z,2.50
2023-02-27T07:01:49.120Z,2.50
2023-02-27T07:02:52.340Z,2.50
2023-02-27T07:03:54.557Z,2.50
2023-02-27T07:04:57.832Z,2.50
2023-02-27T07:06:00.204Z,2.50
2023-02-27T07:07:35.354Z,2.50
2023-02-27T07:08:27.302Z,2.50
2023-02-27T07:09:29.559Z,2.50
2023-02-27T07:10:32.993Z,2.50
2023-02-27T07:11:35.412Z,2.50
2023-02-27T07:12:38.924Z,2.50
2023-02-27T07:13:41.159Z,2.50
2023-02-27T07:14:44.349Z,2.50
2023-02-27T07:15:46.755Z,2.60
2023-02-27T07:16:55.004Z,2.60
2023-02-27T07:17:57.240Z,2.50
2023-02-27T07:19:00.455Z,2.50
2023-02-27T07:20:04.111Z,2.50
2023-02-27T07:21:06.377Z,2.50
2023-02-27T07:22:09.927Z,2.50
2023-02-27T07:23:12.199Z,2.50
2023-02-27T07:24:15.350Z,2.50
2023-02-27T07:25:17.741Z,2.50
2023-02-27T07:26:20.951Z,2.60
2023-02-27T07:27:23.138Z,2.60
2023-02-27T07:28:26.359Z,2.60
2023-02-27T07:29:28.652Z,2.70
2023-02-27T07:30:31.978Z,2.60
2023-02-27T07:31:36.013Z,2.70
2023-02-27T07:32:39.671Z,2.70
2023-02-27T07:33:42.884Z,2.70
2023-02-27T07:34:45.136Z,2.70
2023-02-27T07:35:48.533Z,2.70
2023-02-27T07:36:50.823Z,2.70
2023-02-27T07:37:54.040Z,2.70
2023-02-27T07:38:58.083Z,2.70
2023-02-27T07:40:01.357Z,2.70
2023-02-27T07:41:05.010Z,2.70
2023-02-27T07:42:07.234Z,2.70
2023-02-27T07:43:10.547Z,2.70
2023-02-27T07:44:13.617Z,2.70
2023-02-27T07:45:18.474Z,2.80
2023-02-27T07:46:24.032Z,2.80
2023-02-27T07:47:27.602Z,2.80
2023-02-27T07:48:32.273Z,2.90
2023-02-27T07:49:34.468Z,2.90
2023-02-27T07:50:37.879Z,3.00
2023-02-27T07:51:40.263Z,3.00
2023-02-27T07:52:44.597Z,3.00
2023-02-27T07:53:47.990Z,3.00
2023-02-27T07:54:50.114Z,3.00
2023-02-27T07:55:54.025Z,3.00
2023-02-27T07:56:57.216Z,3.10
2023-02-27T07:57:59.349Z,3.10
2023-02-27T07:59:02.675Z,3.10
2023-02-27T08:00:07.687Z,3.10
2023-02-27T08:01:10.868Z,3.10
2023-02-27T08:02:13.240Z,3.10
2023-02-27T08:03:16.791Z,3.10
2023-02-27T08:04:21.352Z,3.20
2023-02-27T08:05:23.601Z,3.20
2023-02-27T08:06:27.091Z,3.20
2023-02-27T08:07:29.598Z,3.20
2023-02-27T08:08:32.910Z,3.20
2023-02-27T08:09:36.484Z,3.20
2023-02-27T08:10:39.581Z,3.20
2023-02-27T08:11:41.765Z,3.30
2023-02-27T08:12:45.283Z,3.30
2023-02-27T08:13:59.949Z,3.30
2023-02-27T08:15:04.321Z,3.40
2023-02-27T08:16:07.502Z,3.40
2023-02-27T08:17:10.701Z,3.50
2023-02-27T08:18:13.906Z,3.50
2023-02-27T08:19:16.232Z,3.60
2023-02-27T08:20:22.700Z,3.60
2023-02-27T08:21:25.159Z,3.70
2023-02-27T08:22:28.365Z,3.80
2023-02-27T08:23:30.533Z,3.90
2023-02-27T08:24:34.234Z,4.00
2023-02-27T08:25:36.416Z,4.10
2023-02-27T08:26:39.556Z,4.10
2023-02-27T08:27:41.870Z,4.30
2023-02-27T08:28:45.005Z,4.30
2023-02-27T08:29:48.236Z,4.40
2023-02-27T08:30:54.773Z,4.50
2023-02-27T08:32:01.987Z,4.60
2023-02-27T08:33:04.227Z,4.60
2023-02-27T08:34:10.630Z,4.70
2023-02-27T08:35:14.778Z,4.80
2023-02-27T08:36:18.466Z,4.90
2023-02-27T08:37:21.665Z,4.90
2023-02-27T08:38:26.067Z,4.90
2023-02-27T08:39:29.580Z,5.00
2023-02-27T08:40:31.837Z,5.10
2023-02-27T08:41:35.661Z,5.20
2023-02-27T08:42:37.997Z,5.30
2023-02-27T08:43:41.104Z,5.30
2023-02-27T08:44:43.440Z,5.50
2023-02-27T08:45:47.221Z,5.50
2023-02-27T08:46:50.348Z,5.60
2023-02-27T08:47:53.533Z,5.70
2023-02-27T08:48:55.773Z,5.80
2023-02-27T08:49:58.977Z,5.80
2023-02-27T08:51:02.129Z,5.90
2023-02-27T08:52:06.650Z,5.90
2023-02-27T08:53:10.214Z,6.00
2023-02-27T08:54:12.408Z,6.00
2023-02-27T08:55:15.594Z,6.00
2023-02-27T08:56:17.803Z,6.00
2023-02-27T08:57:20.941Z,6.10
2023-02-27T08:58:23.096Z,6.20
2023-02-27T08:59:26.268Z,6.20
2023-02-27T09:00:29.737Z,6.30
2023-02-27T09:01:34.692Z,6.30
2023-02-27T09:02:38.109Z,6.30
2023-02-27T09:03:40.260Z,6.30
2023-02-27T09:04:43.423Z,6.30
2023-02-27T09:05:46.698Z,6.30
2023-02-27T09:06:50.066Z,6.30
2023-02-27T09:07:56.988Z,6.30
2023-02-27T09:08:59.836Z,6.40
2023-02-27T09:10:03.053Z,6.50
2023-02-27T09:11:05.687Z,6.50
2023-02-27T09:12:09.301Z,6.50
2023-02-27T09:13:11.484Z,6.60
2023-02-27T09:14:14.702Z,6.70
2023-02-27T09:15:18.021Z,6.80
2023-02-27T09:16:21.135Z,6.80
2023-02-27T09:17:24.318Z,6.90
2023-02-27T09:18:27.533Z,6.90
2023-02-27T09:19:30.746Z,6.90
2023-02-27T09:20:35.769Z,7.00
2023-02-27T09:21:38.957Z,7.00
2023-02-27T09:22:41.139Z,7.00
2023-02-27T09:23:47.030Z,7.00
2023-02-27T09:24:49.343Z,6.90
2023-02-27T09:25:52.525Z,6.90
2023-02-27T09:26:54.862Z,6.90
2023-02-27T09:27:58.115Z,7.00
2023-02-27T09:29:00.309Z,7.00
2023-02-27T09:30:03.644Z,7.10
2023-02-27T09:31:07.858Z,7.10
2023-02-27T09:32:11.108Z,7.10
2023-02-27T09:33:15.233Z,7.20
2023-02-27T09:34:18.467Z,7.20
2023-02-27T09:35:21.705Z,7.30
2023-02-27T09:36:24.345Z,7.40
2023-02-27T09:37:27.596Z,7.50
2023-02-27T09:38:30.788Z,7.50
2023-02-27T09:39:36.234Z,7.50
2023-02-27T09:40:41.424Z,7.40
2023-02-27T09:41:57.245Z,7.40
2023-02-27T09:43:04.893Z,7.40
2023-02-27T09:44:30.583Z,7.40
2023-02-27T09:45:43.474Z,7.30
2023-02-27T09:46:45.742Z,7.30
2023-02-27T09:47:53.736Z,7.40
2023-02-27T09:49:00.226Z,7.40
2023-02-27T09:50:07.129Z,7.40
2023-02-27T09:51:09.501Z,7.40
2023-02-27T09:52:15.776Z,7.40
2023-02-27T09:53:26.919Z,7.40
2023-02-27T09:54:35.305Z,7.30
2023-02-27T09:55:42.836Z,7.30
2023-02-27T09:56:53.068Z,7.20
2023-02-27T09:58:06.767Z,7.10
2023-02-27T09:59:20.709Z,7.10
2023-02-27T10:00:40.334Z,7.10
2023-02-27T10:01:52.153Z,7.20
2023-02-27T10:03:08.006Z,7.30
2023-02-27T10:04:32.133Z,7.30
2023-02-27T10:05:47.276Z,7.40
2023-02-27T10:06:58.855Z,7.50
2023-02-27T10:08:11.906Z,7.50
2023-02-27T10:09:29.491Z,7.60
2023-02-27T10:10:42.903Z,7.60
2023-02-27T10:11:59.193Z,7.50
2023-02-27T10:13:32.391Z,7.60
2023-02-27T10:14:42.626Z,7.60
2023-02-27T10:15:50.231Z,7.70
2023-02-27T10:16:56.475Z,7.70
2023-02-27T10:18:09.936Z,7.80
2023-02-27T10:19:28.234Z,7.80
2023-02-27T10:20:34.433Z,7.90
2023-02-27T10:21:43.906Z,7.90
2023-02-27T10:22:49.960Z,7.80
2023-02-27T10:23:58.977Z,7.80
2023-02-27T10:25:12.671Z,7.70
2023-02-27T10:26:27.487Z,7.70
2023-02-27T10:27:31.505Z,7.80
2023-02-27T10:28:35.185Z,7.70
2023-02-27T10:29:39.828Z,7.80
2023-02-27T10:30:47.951Z,7.90
2023-02-27T10:32:00.454Z,7.90
2023-02-27T10:33:11.024Z,8.00
2023-02-27T10:34:17.074Z,8.00
2023-02-27T10:35:29.657Z,8.10
2023-02-27T10:36:34.761Z,8.00
2023-02-27T10:37:45.492Z,8.00
2023-02-27T10:38:53.017Z,7.90
2023-02-27T10:40:01.357Z,8.00
2023-02-27T10:41:07.024Z,8.10
2023-02-27T10:42:16.980Z,8.20
2023-02-27T10:43:22.873Z,8.10
2023-02-27T10:44:26.057Z,8.10
2023-02-27T10:45:28.419Z,8.20
2023-02-27T10:46:35.605Z,8.20
2023-02-27T10:47:39.765Z,8.30
2023-02-27T10:48:42.134Z,8.40
2023-02-27T10:49:45.413Z,8.40
2023-02-27T10:50:52.334Z,8.50
2023-02-27T10:52:08.577Z,8.50
2023-02-27T10:53:21.890Z,8.50
2023-02-27T10:54:26.689Z,8.50
2023-02-27T10:55:31.346Z,8.50
2023-02-27T10:56:35.234Z,8.50
2023-02-27T10:57:44.408Z,8.50
2023-02-27T10:58:47.756Z,8.50
2023-02-27T10:59:55.880Z,8.50
2023-02-27T11:01:01.089Z,8.50
2023-02-27T11:02:21.021Z,8.50
2023-02-27T11:03:28.887Z,8.40
2023-02-27T11:04:34.197Z,8.40
2023-02-27T11:05:38.807Z,8.40
2023-02-27T11:06:43.570Z,8.50
2023-02-27T11:07:47.071Z,8.50
2023-02-27T11:09:14.598Z,8.40
2023-02-27T11:10:21.186Z,8.40
2023-02-27T11:11:30.037Z,8.40
2023-02-27T11:12:35.731Z,8.40
2023-02-27T11:13:42.168Z,8.40
2023-02-27T11:14:54.380Z,8.30
2023-02-27T11:16:08.178Z,8.50
2023-02-27T11:17:24.467Z,8.50
2023-02-27T11:18:29.974Z,8.50
2023-02-27T11:19:35.453Z,8.50
2023-02-27T11:20:43.385Z,8.60
2023-02-27T11:22:02.317Z,8.70
2023-02-27T11:23:07.916Z,8.50
2023-02-27T11:24:29.956Z,8.60
2023-02-27T11:25:34.029Z,8.50
2023-02-27T11:26:40.659Z,8.40
2023-02-27T11:27:46.045Z,8.30
2023-02-27T11:29:06.138Z,8.30
2023-02-27T11:30:23.563Z,8.20
2023-02-27T11:31:32.734Z,8.20
2023-02-27T11:32:43.632Z,8.20
2023-02-27T11:33:51.844Z,8.20
2023-02-27T11:34:55.157Z,8.20
2023-02-27T11:35:59.566Z,8.30
2023-02-27T11:37:06.577Z,8.30
2023-02-27T11:38:20.368Z,8.50
2023-02-27T11:39:37.373Z,8.50
2023-02-27T11:40:51.347Z,8.70
2023-02-27T11:41:56.473Z,8.90
2023-02-27T11:43:06.042Z,9.10
2023-02-27T11:44:27.935Z,9.20
2023-02-27T11:46:11.882Z,9.30
2023-02-27T11:47:22.617Z,9.30
2023-02-27T11:48:30.725Z,9.30
2023-02-27T11:49:41.936Z,9.30
2023-02-27T11:51:06.216Z,9.30
2023-02-27T11:52:20.944Z,9.30
2023-02-27T11:53:47.431Z,9.20
2023-02-27T11:54:55.590Z,9.20
2023-02-27T11:56:03.683Z,9.10
2023-02-27T11:57:19.384Z,9.00
2023-02-27T11:58:26.502Z,9.00
2023-02-27T11:59:40.825Z,8.90
2023-02-27T12:00:50.089Z,8.90
2023-02-27T12:02:01.253Z,8.80
2023-02-27T12:03:13.842Z,8.70
2023-02-27T12:04:25.243Z,8.60
2023-02-27T12:05:35.745Z,8.60
2023-02-27T12:06:46.456Z,8.50
2023-02-27T12:07:57.643Z,8.50
2023-02-27T12:09:05.252Z,8.50
2023-02-27T12:10:18.577Z,8.50
2023-02-27T12:11:29.165Z,8.60
2023-02-27T12:12:42.576Z,8.60
2023-02-27T12:13:53.405Z,8.70
2023-02-27T12:15:05.728Z,8.70
2023-02-27T12:16:18.650Z,8.70
2023-02-27T12:17:27.989Z,8.80
2023-02-27T12:18:39.461Z,8.80
2023-02-27T12:19:48.348Z,8.80
2023-02-27T12:20:58.748Z,8.80
2023-02-27T12:22:09.098Z,8.90
2023-02-27T12:23:22.167Z,8.90
2023-02-27T12:24:31.042Z,8.90
2023-02-27T12:25:46.425Z,9.00
2023-02-27T12:26:58.528Z,9.00
2023-02-27T12:28:08.946Z,9.10
2023-02-27T12:29:23.962Z,9.00
2023-02-27T12:30:35.014Z,9.10
2023-02-27T12:31:46.411Z,9.10
2023-02-27T12:32:59.097Z,9.10
2023-02-27T12:34:12.941Z,9.20
2023-02-27T12:35:23.059Z,9.10
2023-02-27T12:36:26.227Z,9.10
2023-02-27T12:37:33.473Z,9.20
2023-02-27T12:38:35.704Z,9.30
2023-02-27T12:39:41.410Z,9.40
2023-02-27T12:40:56.954Z,9.40
2023-02-27T12:42:26.773Z,9.50
2023-02-27T12:43:42.533Z,9.50
2023-02-27T12:45:04.637Z,9.60
2023-02-27T12:46:34.830Z,9.80
2023-02-27T12:47:43.999Z,9.90
2023-02-27T12:49:00.503Z,10.00
2023-02-27T12:50:11.342Z,10.00
2023-02-27T12:51:35.659Z,10.10
2023-02-27T12:52:52.290Z,10.20
2023-02-27T12:54:15.795Z,10.20
2023-02-27T12:55:24.606Z,10.20
2023-02-27T12:56:40.811Z,10.20
2023-02-27T12:58:17.963Z,10.30
2023-02-27T12:59:39.455Z,10.30
2023-02-27T13:00:48.749Z,10.50
2023-02-27T13:02:04.500Z,10.70
2023-02-27T13:03:17.194Z,10.70
2023-02-27T13:04:29.004Z,10.70
2023-02-27T13:05:42.894Z,10.70
2023-02-27T13:06:54.068Z,10.70
2023-02-27T13:08:08.170Z,10.60
2023-02-27T13:09:29.351Z,10.50
2023-02-27T13:10:40.770Z,10.30
2023-02-27T13:11:55.166Z,10.30
2023-02-27T13:13:09.776Z,10.20
2023-02-27T13:14:47.898Z,10.10
2023-02-27T13:15:59.473Z,10.00
2023-02-27T13:17:10.513Z,10.00
2023-02-27T13:18:31.707Z,10.00
2023-02-27T13:19:43.814Z,10.10
2023-02-27T13:20:53.757Z,10.00
2023-02-27T13:22:07.574Z,10.00
2023-02-27T13:23:22.830Z,10.00
2023-02-27T13:24:28.665Z,10.00
2023-02-27T13:25:37.371Z,9.90
2023-02-27T13:26:44.853Z,9.90
2023-02-27T13:27:53.354Z,9.90
2023-02-27T13:28:56.651Z,9.90
2023-02-27T13:30:13.794Z,10.00
2023-02-27T13:31:28.271Z,10.00
2023-02-27T13:32:43.935Z,9.90
2023-02-27T13:33:56.393Z,9.90
2023-02-27T13:35:07.755Z,9.70
2023-02-27T13:36:16.901Z,9.60
2023-02-27T13:37:20.171Z,9.50
2023-02-27T13:38:41.623Z,9.50
2023-02-27T13:40:01.527Z,9.40
2023-02-27T13:41:36.218Z,9.20
2023-02-27T13:43:02.045Z,9.20
2023-02-27T13:44:40.556Z,9.10
2023-02-27T13:46:01.899Z,9.10
2023-02-27T13:47:40.491Z,9.10
2023-02-27T13:48:52.280Z,9.00
2023-02-27T13:49:56.008Z,9.10
2023-02-27T13:50:59.207Z,9.20
2023-02-27T13:52:04.371Z,9.30
2023-02-27T13:53:17.800Z,9.30
2023-02-27T13:54:36.268Z,9.30
2023-02-27T13:55:40.078Z,9.30
2023-02-27T13:56:47.108Z,9.30
2023-02-27T13:57:52.651Z,9.30
2023-02-27T13:58:57.614Z,9.30
2023-02-27T14:00:08.524Z,9.30
2023-02-27T14:01:18.562Z,9.30
2023-02-27T14:02:38.685Z,9.30
2023-02-27T14:03:56.616Z,9.30
2023-02-27T14:05:04.227Z,9.20
2023-02-27T14:06:07.884Z,9.10
2023-02-27T14:07:15.378Z,9.00
2023-02-27T14:08:24.344Z,9.00
2023-02-27T14:09:37.292Z,9.00
2023-02-27T14:10:51.255Z,8.80
2023-02-27T14:11:57.759Z,8.80
2023-02-27T14:13:03.566Z,8.70
2023-02-27T14:14:31.351Z,8.70
2023-02-27T14:16:00.418Z,8.70
2023-02-27T14:17:04.516Z,8.70
2023-02-27T14:18:52.798Z,8.80
2023-02-27T14:19:59.201Z,8.80
2023-02-27T14:21:01.473Z,8.80
2023-02-27T14:22:39.506Z,8.90
2023-02-27T14:23:46.905Z,9.00
2023-02-27T14:25:02.913Z,9.00
2023-02-27T14:26:17.780Z,9.10
2023-02-27T14:27:26.730Z,9.20
2023-02-27T14:28:35.893Z,9.30
2023-02-27T14:29:38.325Z,9.40
2023-02-27T14:30:46.704Z,9.40
2023-02-27T14:31:52.170Z,9.30
2023-02-27T14:33:01.081Z,9.30
2023-02-27T14:34:08.381Z,9.30
2023-02-27T14:35:17.236Z,9.30
2023-02-27T14:36:23.133Z,9.30
2023-02-27T14:37:27.517Z,9.20
2023-02-27T14:38:33.233Z,9.30
2023-02-27T14:39:39.611Z,9.20
2023-02-27T14:41:00.095Z,9.30
2023-02-27T14:42:31.835Z,9.20
2023-02-27T14:43:40.489Z,9.20
2023-02-27T14:44:47.979Z,9.30
2023-02-27T14:45:51.318Z,9.20
2023-02-27T14:46:57.825Z,9.20
2023-02-27T14:48:00.150Z,9.10
2023-02-27T14:49:07.245Z,9.00
2023-02-27T14:50:25.045Z,9.00
2023-02-27T14:51:32.566Z,9.00
2023-02-27T14:52:44.213Z,9.00
2023-02-27T14:53:59.710Z,9.10
2023-02-27T14:55:18.845Z,9.10
2023-02-27T14:56:22.149Z,9.20
2023-02-27T14:57:27.589Z,9.20
2023-02-27T14:58:30.876Z,9.30
2023-02-27T14:59:41.976Z,9.30
2023-02-27T15:00:50.538Z,9.30
2023-02-27T15:01:55.764Z,9.40
2023-02-27T15:02:59.638Z,9.40
2023-02-27T15:04:03.186Z,9.30
2023-02-27T15:05:21.858Z,9.40
2023-02-27T15:06:36.014Z,9.30
2023-02-27T15:07:39.962Z,9.30
2023-02-27T15:08:47.989Z,9.20
2023-02-27T15:09:52.571Z,9.20
2023-02-27T15:10:59.775Z,9.10
2023-02-27T15:12:04.965Z,9.10
2023-02-27T15:13:08.422Z,9.00